Terminal Aerodrome Forecast
Issued by NWS Binghamton, NY

Home | Current Version | Previous Version | Text Only | Print | Product List | Glossary On
Versions: 1 2 3 4 5 6 7 8 9 10 11 12 13 14 15 16 17 18 19 20 21 22 23 24
000
FTUS41 KBGM 180901 AAA
TAFAVP
TAF AMD
KAVP 180901Z 1809/1906 25008KT P6SM BKN020
     FM181200 31008G16KT P6SM SCT050
     FM181900 29009KT P6SM FEW250
     FM190000 VRB03KT P6SM FEW250=

USA.gov is the U.S. government's official web portal to all federal, state and local government web resources and services.